Time;durP1;ratioP1;P1;durP2;ratioP2;P2;SDS_P1;SDS_P2;PMS_P1;PMS_P2;Temp;Humidity;BMP_temperature;BMP_pressure;BME280_temperature;BME280_humidity;BME280_pressure;Samples;Min_cycle;Max_cycle;Signal;HPM_P1;HPM_P2
2022/12/22 03:26:18;;;;;;;2.08;1.30;;;;;;;18.65;45.60;100102.34;5018002;28;20107;-69
2022/12/22 03:28:43;;;;;;;3.53;1.20;;;;;;;18.66;45.63;100105.84;5024698;28;20389;-70
2022/12/22 03:31:08;;;;;;;1.83;1.00;;;;;;;18.66;45.43;100104.03;5019313;28;20208;-70
2022/12/22 03:33:34;;;;;;;1.90;0.90;;;;;;;18.64;45.42;100094.59;5018076;28;20029;-72
2022/12/22 03:36:00;;;;;;;3.30;1.05;;;;;;;18.67;45.68;100092.50;5004668;28;20141;-72
2022/12/22 03:38:25;;;;;;;1.67;0.80;;;;;;;18.67;45.47;100100.44;5015557;28;20401;-72
2022/12/22 03:40:51;;;;;;;1.75;1.00;;;;;;;18.66;45.61;100095.28;5014269;28;20033;-70
2022/12/22 03:48:43;;;;;;;1.70;0.88;;;;;;;18.65;45.56;100075.97;5021899;28;19920;-69
2022/12/22 03:51:08;;;;;;;2.63;0.82;;;;;;;18.63;45.45;100083.22;5023885;28;20044;-69
2022/12/22 03:53:33;;;;;;;2.50;1.00;;;;;;;18.62;45.50;100081.53;5020120;28;20033;-70
2022/12/22 03:55:59;;;;;;;2.42;0.90;;;;;;;18.61;45.47;100074.63;5010123;28;20068;-70
2022/12/22 03:58:24;;;;;;;4.20;0.98;;;;;;;18.61;45.68;100081.69;5004607;28;20386;-69
2022/12/22 04:00:50;;;;;;;2.10;0.85;;;;;;;18.63;45.42;100080.56;5003809;28;20059;-71
2022/12/22 04:03:16;;;;;;;1.48;0.80;;;;;;;18.60;45.51;100072.13;5004481;28;20453;-69
2022/12/22 04:05:41;;;;;;;1.05;0.80;;;;;;;18.58;45.31;100060.84;5011825;28;20047;-69
2022/12/22 04:08:06;;;;;;;1.67;1.00;;;;;;;18.58;45.46;100067.00;5021338;28;20124;-71
2022/12/22 04:13:15;;;;;;;1.90;0.90;;;;;;;18.59;45.39;100065.16;5012713;28;20103;-71
2022/12/22 04:15:41;;;;;;;1.92;0.90;;;;;;;18.61;45.40;100076.41;5022109;28;20457;-70
2022/12/22 04:18:06;;;;;;;1.58;0.80;;;;;;;18.60;45.36;100072.13;5024032;28;20037;-70
2022/12/22 04:20:31;;;;;;;1.63;0.90;;;;;;;18.58;45.59;100069.63;5014455;28;20041;-70
2022/12/22 04:22:57;;;;;;;2.13;1.02;;;;;;;18.59;45.60;100067.81;5023624;28;20033;-69
2022/12/22 04:25:23;;;;;;;1.80;1.00;;;;;;;18.57;45.59;100070.59;5023642;28;20152;-71
2022/12/22 04:27:49;;;;;;;2.00;1.00;;;;;;;18.54;45.55;100062.97;5019656;28;20038;-71
2022/12/22 04:30:15;;;;;;;2.28;1.08;;;;;;;18.56;45.77;100074.19;5017098;28;20041;-71
2022/12/22 04:32:40;;;;;;;2.63;1.00;;;;;;;18.54;45.40;100073.53;5005473;28;20048;-71
2022/12/22 04:35:07;;;;;;;1.42;0.90;;;;;;;18.56;45.41;100084.75;5018519;28;20045;-70
2022/12/22 04:37:32;;;;;;;3.42;1.00;;;;;;;18.56;45.41;100079.47;5007755;28;20034;-71
2022/12/22 04:39:57;;;;;;;1.98;1.00;;;;;;;18.56;45.82;100083.94;5003515;28;20052;-70
2022/12/22 04:42:22;;;;;;;2.08;1.00;;;;;;;18.55;45.96;100082.25;5003167;28;20042;-70
2022/12/22 04:44:48;;;;;;;1.55;0.90;;;;;;;18.50;45.64;100082.72;5003451;28;20034;-70
2022/12/22 04:47:14;;;;;;;1.98;1.08;;;;;;;18.52;45.83;100080.75;5015267;28;20038;-71
2022/12/22 04:49:39;;;;;;;1.63;1.00;;;;;;;18.52;45.79;100086.03;5005537;28;20033;-71
2022/12/22 04:52:04;;;;;;;2.20;1.15;;;;;;;18.52;45.58;100086.03;5010786;28;20041;-71
2022/12/22 04:54:30;;;;;;;2.47;1.20;;;;;;;18.54;45.46;100085.91;5011114;28;20030;-70
2022/12/22 04:56:55;;;;;;;2.30;1.10;;;;;;;18.52;45.50;100085.19;5002761;28;20643;-70
2022/12/22 04:59:20;;;;;;;2.22;1.10;;;;;;;18.52;45.63;100079.91;5003386;28;20113;-71
2022/12/22 05:01:45;;;;;;;1.77;1.00;;;;;;;18.54;45.60;100080.63;5019530;28;20060;-70
2022/12/22 05:04:11;;;;;;;1.37;0.90;;;;;;;18.53;45.51;100079.75;5003302;28;20152;-70
2022/12/22 05:06:36;;;;;;;1.33;0.85;;;;;;;18.52;45.82;100072.84;5003135;28;20334;-70
2022/12/22 05:09:01;;;;;;;2.35;1.10;;;;;;;18.51;45.80;100065.91;5003223;28;20037;-69
2022/12/22 05:11:27;;;;;;;1.80;1.17;;;;;;;18.52;45.49;100072.00;5012409;28;20041;-70
2022/12/22 05:13:52;;;;;;;1.93;1.13;;;;;;;18.51;45.70;100076.44;5037480;28;20037;-70
2022/12/22 05:16:17;;;;;;;2.30;1.00;;;;;;;18.53;45.61;100076.31;5022437;28;20297;-70
2022/12/22 05:18:44;;;;;;;1.75;0.90;;;;;;;18.51;45.71;100076.44;5022677;28;20274;-73
2022/12/22 05:21:18;;;;;;;1.85;0.90;;;;;;;18.48;45.57;100074.94;5018602;28;20034;-70
2022/12/22 05:23:44;;;;;;;1.88;0.90;;;;;;;18.48;45.67;100076.75;5012760;28;20033;-70
2022/12/22 05:26:10;;;;;;;2.88;1.20;;;;;;;18.49;45.65;100086.31;5014347;28;20504;-70
2022/12/22 05:28:36;;;;;;;2.33;1.10;;;;;;;18.47;45.67;100089.13;5015528;28;20037;-70
2022/12/22 05:31:12;;;;;;;2.20;1.10;;;;;;;18.47;45.59;100091.75;5016697;28;20040;-71
2022/12/22 05:33:38;;;;;;;2.47;1.05;;;;;;;18.49;45.68;100095.06;5018013;28;20060;-69
2022/12/22 05:36:03;;;;;;;1.75;1.00;;;;;;;18.46;45.34;100095.34;5011813;28;20038;-69
2022/12/22 05:38:29;;;;;;;2.40;1.10;;;;;;;18.46;45.68;100091.91;5022489;28;20045;-70
2022/12/22 05:40:54;;;;;;;2.38;1.10;;;;;;;18.48;45.65;100105.75;5008492;28;20061;-69
2022/12/22 05:43:19;;;;;;;2.10;1.10;;;;;;;18.46;45.65;100097.16;5021585;28;20116;-71
2022/12/22 05:45:46;;;;;;;2.13;1.08;;;;;;;18.45;45.66;100101.63;5021614;28;20051;-70
2022/12/22 05:48:11;;;;;;;2.08;1.10;;;;;;;18.44;45.58;100105.22;5009822;28;20038;-70
2022/12/22 05:50:36;;;;;;;2.53;1.30;;;;;;;18.45;45.69;100109.53;5019169;28;20114;-72
2022/12/22 05:53:02;;;;;;;1.90;1.00;;;;;;;18.44;45.57;100109.69;5016996;28;20037;-70
2022/12/22 05:55:27;;;;;;;4.18;1.10;;;;;;;18.44;45.49;100115.78;5001901;28;20040;-70
2022/12/22 05:57:53;;;;;;;2.25;1.10;;;;;;;18.44;45.51;100117.59;5019474;28;20025;-70
2022/12/22 06:00:19;;;;;;;1.92;1.08;;;;;;;18.44;45.91;100134.25;5008056;28;20037;-72
2022/12/22 06:02:44;;;;;;;2.63;1.25;;;;;;;18.42;45.70;100136.22;5022017;28;20389;-73
2022/12/22 06:05:11;;;;;;;2.20;1.10;;;;;;;18.42;45.59;100145.91;5016207;28;20038;-69
2022/12/22 06:07:36;;;;;;;1.83;0.90;;;;;;;18.42;45.35;100154.69;5012269;28;20052;-70
2022/12/22 06:10:03;;;;;;;1.70;0.90;;;;;;;18.42;45.48;100154.69;5002975;28;20045;-68
2022/12/22 06:12:28;;;;;;;1.75;0.90;;;;;;;18.43;45.50;100160.78;5014795;28;20037;-68
2022/12/22 06:14:54;;;;;;;1.40;0.80;;;;;;;18.47;45.54;100165.63;5006788;28;20159;-71
2022/12/22 06:17:19;;;;;;;1.43;0.87;;;;;;;18.47;45.60;100162.16;5005822;28;20042;-70
2022/12/22 06:19:44;;;;;;;1.52;0.80;;;;;;;18.48;45.58;100167.31;5019721;28;20262;-70
2022/12/22 06:22:10;;;;;;;1.77;0.90;;;;;;;18.51;45.58;100174.06;5007379;28;20080;-70
2022/12/22 06:24:35;;;;;;;0.95;0.55;;;;;;;18.52;45.60;100177.53;5017013;28;20282;-70
2022/12/22 06:27:00;;;;;;;1.40;0.82;;;;;;;18.56;45.66;100184.22;5001657;28;20040;-69
2022/12/22 06:29:25;;;;;;;0.95;0.68;;;;;;;18.58;45.83;100190.16;5016777;28;20092;-69
2022/12/22 06:31:51;;;;;;;1.63;0.70;;;;;;;18.62;45.47;100197.66;5009388;28;20122;-71
2022/12/22 06:34:16;;;;;;;1.30;0.70;;;;;;;18.57;45.90;100177.97;5004324;28;20049;-71
2022/12/22 06:36:43;;;;;;;1.70;0.80;;;;;;;18.59;45.94;100184.75;5001397;28;20026;-70
2022/12/22 06:39:08;;;;;;;2.90;0.90;;;;;;;18.70;45.88;100206.69;5004554;28;20037;-70
2022/12/22 06:44:18;;;;;;;2.53;0.90;;;;;;;18.75;45.50;100207.88;5021205;28;20048;-70
2022/12/22 06:46:43;;;;;;;1.83;0.90;;;;;;;18.79;45.64;100209.28;5004031;28;20046;-69
2022/12/22 06:49:08;;;;;;;1.77;0.82;;;;;;;18.84;45.63;100220.25;5017021;28;20099;-70
2022/12/22 06:51:34;;;;;;;2.07;1.00;;;;;;;18.85;45.70;100229.84;5012207;28;20069;-69
2022/12/22 06:53:59;;;;;;;1.95;1.00;;;;;;;18.85;45.59;100232.50;5016023;28;20755;-69
2022/12/22 06:56:24;;;;;;;2.63;1.10;;;;;;;18.89;45.55;100233.03;5019182;28;20124;-68
2022/12/22 06:58:49;;;;;;;2.95;1.30;;;;;;;18.96;45.80;100238.56;5021344;28;21107;-67
2022/12/22 07:01:15;;;;;;;3.03;1.55;;;;;;;18.96;45.73;100241.19;5007535;28;20036;-68
2022/12/22 07:03:40;;;;;;;2.97;1.40;;;;;;;18.97;45.56;100233.13;5001655;28;20026;-68
2022/12/22 07:06:05;;;;;;;2.90;1.50;;;;;;;18.98;45.92;100255.13;5008817;28;20273;-70
2022/12/22 07:08:31;;;;;;;2.97;1.63;;;;;;;18.97;45.87;100264.00;5013787;28;20036;-71
2022/12/22 07:10:59;;;;;;;3.28;1.55;;;;;;;18.98;45.93;100271.78;5013247;28;20113;-68
2022/12/22 07:13:30;;;;;;;3.63;1.80;;;;;;;18.99;46.17;100278.75;5020474;28;20034;-69
2022/12/22 07:15:56;;;;;;;3.70;1.90;;;;;;;18.98;45.91;100282.34;5012621;28;20034;-71
2022/12/22 07:18:22;;;;;;;3.10;1.60;;;;;;;18.97;46.05;100285.94;5001494;28;20060;-68
2022/12/22 07:20:47;;;;;;;4.00;1.85;;;;;;;18.97;46.38;100282.47;5001865;28;20088;-67
2022/12/22 07:23:12;;;;;;;3.45;1.55;;;;;;;18.97;46.21;100272.75;5009772;28;20033;-68
2022/12/22 07:25:38;;;;;;;3.63;1.73;;;;;;;19.02;46.32;100277.59;5005833;28;20037;-65
2022/12/22 07:28:05;;;;;;;3.50;1.77;;;;;;;18.99;46.55;100281.38;5014959;28;20040;-68
2022/12/22 07:30:31;;;;;;;6.30;1.92;;;;;;;18.98;46.51;100274.41;5012522;28;20033;-72
2022/12/22 07:32:56;;;;;;;4.28;2.10;;;;;;;18.98;46.88;100271.78;5018422;28;20080;-69
2022/12/22 07:35:21;;;;;;;4.65;2.10;;;;;;;19.00;46.67;100276.91;5000946;28;20505;-68
2022/12/22 07:37:47;;;;;;;3.72;1.75;;;;;;;19.05;46.95;100287.06;5018240;28;20056;-69
2022/12/22 07:40:13;;;;;;;3.92;2.15;;;;;;;19.01;46.66;100283.88;5020740;28;20482;-70
2022/12/22 07:42:44;;;;;;;4.00;1.83;;;;;;;19.03;47.23;100293.31;5011551;28;20033;-72
2022/12/22 07:45:10;;;;;;;6.82;2.40;;;;;;;19.07;48.22;100303.56;5005801;28;20026;-69
2022/12/22 07:47:35;;;;;;;10.10;3.20;;;;;;;19.02;48.51;100306.66;5014641;28;20450;-70
2022/12/22 07:52:45;;;;;;;8.70;3.53;;;;;;;19.09;48.70;100312.19;5018332;28;20040;-66
2022/12/22 07:55:10;;;;;;;7.70;3.33;;;;;;;19.11;48.92;100321.63;5014416;28;20037;-67
2022/12/22 07:57:35;;;;;;;6.55;3.17;;;;;;;19.11;48.84;100326.91;5018178;28;20265;-67
2022/12/22 08:00:01;;;;;;;9.57;4.40;;;;;;;19.12;48.77;100343.59;5012504;28;20395;-68
2022/12/22 08:02:26;;;;;;;8.95;3.80;;;;;;;19.12;48.84;100355.00;5017129;28;20259;-68
2022/12/22 08:04:51;;;;;;;7.33;3.17;;;;;;;19.12;48.83;100359.44;5009915;28;20105;-67
2022/12/22 08:07:17;;;;;;;6.18;3.20;;;;;;;19.09;48.60;100360.56;5016502;28;20310;-68
2022/12/22 08:09:42;;;;;;;7.65;3.58;;;;;;;19.13;48.32;100374.31;5017822;28;20041;-68
2022/12/22 08:12:07;;;;;;;7.38;3.53;;;;;;;19.09;48.34;100372.94;5018572;28;20087;-70
2022/12/22 08:14:32;;;;;;;7.40;3.67;;;;;;;19.10;48.36;100391.28;5010021;28;20034;-69
2022/12/22 08:16:58;;;;;;;6.07;3.40;;;;;;;19.09;48.45;100389.63;5005421;28;20117;-69
2022/12/22 08:19:23;;;;;;;7.27;3.60;;;;;;;19.08;48.19;100387.94;5003982;28;20437;-73
2022/12/22 08:21:48;;;;;;;7.03;3.65;;;;;;;19.08;48.35;100387.13;5003844;28;20305;-69
2022/12/22 08:24:14;;;;;;;8.05;4.00;;;;;;;19.09;48.03;100389.63;5004264;28;20034;-72
2022/12/22 08:26:49;;;;;;;7.18;3.63;;;;;;;19.06;48.03;100389.06;5018319;28;20037;-72
2022/12/22 08:29:22;;;;;;;7.63;4.35;;;;;;;19.06;48.08;100399.63;5023112;28;20456;-70
2022/12/22 08:31:48;;;;;;;6.15;3.53;;;;;;;19.09;47.84;100400.19;5023639;28;20033;-69
2022/12/22 08:34:15;;;;;;;7.30;3.72;;;;;;;19.08;48.08;100413.53;5022919;28;20071;-69
2022/12/22 08:36:46;;;;;;;7.07;3.85;;;;;;;19.05;47.81;100414.66;5023578;28;20038;-70
2022/12/22 08:39:12;;;;;;;6.25;3.58;;;;;;;19.07;47.91;100417.16;5016085;28;20038;-71
2022/12/22 08:41:50;;;;;;;6.88;3.47;;;;;;;19.07;47.74;100436.44;5020732;28;20033;-70
2022/12/22 08:44:18;;;;;;;7.60;3.95;;;;;;;19.00;47.69;100436.19;5016587;28;20030;-69
2022/12/22 08:46:43;;;;;;;9.30;4.30;;;;;;;19.10;48.04;100453.84;5009290;28;20041;-74
2022/12/22 08:49:08;;;;;;;6.38;3.58;;;;;;;19.12;48.12;100465.09;5005488;28;20506;-69
2022/12/22 08:51:34;;;;;;;9.20;3.92;;;;;;;19.12;47.94;100481.78;5014382;28;20034;-70
2022/12/22 08:53:59;;;;;;;8.32;4.25;;;;;;;19.12;47.83;100484.44;5016161;28;20068;-73
2022/12/22 08:56:24;;;;;;;7.88;4.30;;;;;;;19.08;48.02;100479.56;5004959;28;20119;-70
2022/12/22 08:58:50;;;;;;;8.25;4.10;;;;;;;19.09;47.77;100475.94;5009922;28;20041;-69
2022/12/22 09:01:19;;;;;;;7.10;3.90;;;;;;;19.06;47.81;100465.66;5011693;28;20042;-71
2022/12/22 09:03:49;;;;;;;8.13;3.65;;;;;;;19.09;47.86;100482.06;5008629;28;20037;-70
2022/12/22 09:06:16;;;;;;;7.70;4.07;;;;;;;19.09;47.46;100489.13;5018917;28;20050;-70
2022/12/22 09:08:41;;;;;;;6.10;3.95;;;;;;;19.08;47.48;100490.97;5022643;28;20034;-69
2022/12/22 09:11:06;;;;;;;8.95;4.43;;;;;;;19.06;47.46;100492.91;5007392;28;20080;-69
2022/12/22 09:13:32;;;;;;;8.23;5.03;;;;;;;19.03;47.41;100486.09;5022567;28;20033;-72
2022/12/22 09:15:57;;;;;;;8.25;3.97;;;;;;;19.08;47.37;100487.50;5021051;28;20715;-69
2022/12/22 09:18:22;;;;;;;8.63;4.10;;;;;;;19.06;47.22;100489.41;5013187;28;20022;-70
2022/12/22 09:20:54;;;;;;;6.95;3.95;;;;;;;19.05;47.36;100490.41;5017058;28;20378;-70
2022/12/22 09:23:19;;;;;;;7.13;3.45;;;;;;;19.03;47.33;100493.19;5022430;28;20033;-70
2022/12/22 09:25:44;;;;;;;7.88;4.10;;;;;;;19.02;47.08;100497.63;5014934;28;20462;-71
2022/12/22 09:28:10;;;;;;;8.32;4.25;;;;;;;19.03;47.28;100503.75;5022315;28;20065;-70
2022/12/22 09:30:36;;;;;;;11.15;4.20;;;;;;;19.03;47.13;100506.41;5008125;28;20077;-70
2022/12/22 09:33:01;;;;;;;9.25;3.83;;;;;;;18.94;47.16;100492.19;5001071;28;20509;-68
2022/12/22 09:35:26;;;;;;;6.60;3.83;;;;;;;19.04;47.03;100508.03;5012200;28;20267;-68
2022/12/22 09:37:51;;;;;;;10.53;4.17;;;;;;;19.04;47.21;100513.31;5010117;28;20263;-68
2022/12/22 09:40:20;;;;;;;7.47;3.92;;;;;;;18.99;46.73;100515.56;5002708;28;20807;-68
2022/12/22 09:42:45;;;;;;;8.60;3.85;;;;;;;18.99;47.02;100512.91;5004944;28;20561;-68
2022/12/22 09:45:18;;;;;;;10.30;4.07;;;;;;;18.97;46.84;100514.88;5002447;28;20041;-68
2022/12/22 09:47:52;;;;;;;7.40;4.25;;;;;;;18.97;46.86;100533.34;5016676;28;20041;-67
2022/12/22 09:50:22;;;;;;;6.32;3.75;;;;;;;19.01;46.72;100540.88;5004572;28;20261;-70
2022/12/22 09:52:52;;;;;;;7.40;4.13;;;;;;;18.98;46.71;100535.84;5002176;28;20042;-68
2022/12/22 09:55:23;;;;;;;7.40;4.22;;;;;;;18.98;46.68;100541.13;5003395;28;20030;-68
2022/12/22 09:57:50;;;;;;;6.60;3.92;;;;;;;18.99;46.43;100547.25;5010930;28;20034;-70
2022/12/22 10:00:18;;;;;;;6.75;4.47;;;;;;;18.97;46.63;100542.09;5012239;28;20034;-67
2022/12/22 10:03:20;;;;;;;7.00;4.03;;;;;;;18.98;46.33;100546.41;5017419;28;20529;-69
2022/12/22 10:06:11;;;;;;;6.95;4.32;;;;;;;18.98;46.42;100551.69;5001916;28;20466;-70
2022/12/22 10:08:37;;;;;;;6.28;3.85;;;;;;;18.97;46.54;100554.47;5002099;28;20490;-68
2022/12/22 10:11:03;;;;;;;6.53;4.25;;;;;;;18.97;46.45;100552.66;5001802;28;20057;-66
2022/12/22 10:13:28;;;;;;;7.97;3.97;;;;;;;18.97;46.43;100565.03;5016286;28;20052;-69
2022/12/22 10:15:54;;;;;;;6.07;3.60;;;;;;;18.95;46.49;100569.63;5010222;28;20038;-70
2022/12/22 10:18:29;;;;;;;6.47;3.70;;;;;;;18.92;46.25;100565.44;5001616;28;20038;-69
2022/12/22 10:21:10;;;;;;;6.53;3.70;;;;;;;18.96;46.53;100572.13;5001711;28;20173;-70
2022/12/22 10:23:43;;;;;;;5.95;3.47;;;;;;;18.95;46.35;100569.63;5003335;28;20108;-70
2022/12/22 10:26:16;;;;;;;8.18;3.80;;;;;;;18.98;46.38;100564.09;5008922;28;20037;-70
2022/12/22 10:28:58;;;;;;;5.65;3.33;;;;;;;18.98;46.60;100553.53;5010028;28;20033;-71
2022/12/22 10:31:32;;;;;;;7.97;3.40;;;;;;;19.01;46.49;100563.81;5014564;28;20033;-69
2022/12/22 10:34:12;;;;;;;6.20;3.30;;;;;;;19.02;46.04;100568.09;5014188;28;20045;-66
2022/12/22 10:36:45;;;;;;;5.65;3.33;;;;;;;18.96;46.42;100569.50;5012408;28;20156;-68
2022/12/22 10:39:18;;;;;;;6.43;3.42;;;;;;;19.00;46.58;100575.34;5008521;28;20080;-66
2022/12/22 10:41:46;;;;;;;7.00;2.90;;;;;;;19.02;46.35;100581.31;5012604;28;20034;-69
2022/12/22 10:44:14;;;;;;;5.32;3.20;;;;;;;19.05;46.44;100572.28;5007223;28;20033;-71
2022/12/22 10:46:44;;;;;;;5.93;3.45;;;;;;;19.03;46.48;100567.97;5011842;28;20037;-74
2022/12/22 10:49:15;;;;;;;5.97;3.22;;;;;;;19.09;46.38;100574.50;5009690;28;20037;-71
2022/12/22 10:51:45;;;;;;;5.50;3.00;;;;;;;19.06;46.30;100563.38;5014052;28;20038;-67
2022/12/22 10:54:32;;;;;;;7.15;3.42;;;;;;;19.08;46.45;100569.38;5001254;28;20033;-75
2022/12/22 10:57:24;;;;;;;6.78;3.60;;;;;;;19.14;46.41;100582.84;5011107;28;20041;-76
2022/12/22 10:59:55;;;;;;;5.57;3.10;;;;;;;19.12;46.43;100584.81;5002775;28;20104;-70
2022/12/22 11:02:25;;;;;;;6.25;3.08;;;;;;;19.09;46.35;100585.09;5007478;28;20046;-70
2022/12/22 11:04:52;;;;;;;7.07;3.10;;;;;;;19.13;46.47;100589.09;5010209;28;20037;-71
2022/12/22 11:07:18;;;;;;;9.15;3.10;;;;;;;19.10;46.51;100580.63;5020013;28;20041;-73
2022/12/22 11:09:44;;;;;;;6.88;3.00;;;;;;;19.14;46.29;100590.78;5011905;28;20041;-67
2022/12/22 11:12:15;;;;;;;5.90;3.20;;;;;;;19.18;46.41;100593.97;5005470;28;20433;-64
2022/12/22 11:15:00;;;;;;;6.38;2.95;;;;;;;19.16;46.17;100594.09;5004762;28;20062;-70
2022/12/22 11:17:38;;;;;;;8.63;3.08;;;;;;;19.18;46.25;100604.53;5013700;28;20037;-70
2022/12/22 11:20:47;;;;;;;6.75;3.25;;;;;;;19.19;46.24;100598.28;5012817;28;20032;-71
2022/12/22 11:23:35;;;;;;;7.40;3.63;;;;;;;19.20;46.03;100587.59;4958382;28;20039;-72
2022/12/22 11:26:39;;;;;;;6.78;3.25;;;;;;;19.24;45.89;100592.59;4958957;28;20094;-72
2022/12/22 11:29:20;;;;;;;10.67;3.47;;;;;;;19.25;45.97;100603.03;5009276;28;20421;-70
2022/12/22 11:32:02;;;;;;;5.63;2.97;;;;;;;19.24;46.19;100601.34;5022243;28;20034;-67
2022/12/22 11:34:39;;;;;;;7.60;4.03;;;;;;;19.25;45.74;100608.31;5015587;28;20469;-66
2022/12/22 11:37:39;;;;;;;25.42;3.88;;;;;;;19.27;46.09;100606.38;5010196;28;20030;-70
2022/12/22 11:40:36;;;;;;;7.78;4.00;;;;;;;19.23;45.97;100601.50;5007866;28;20076;-72
2022/12/22 11:43:23;;;;;;;8.43;3.60;;;;;;;19.27;46.01;100614.28;5008277;28;20853;-69
2022/12/22 11:46:14;;;;;;;8.05;3.80;;;;;;;19.27;45.92;100606.38;5016553;28;20371;-67
2022/12/22 11:48:54;;;;;;;7.45;3.53;;;;;;;19.25;45.55;100610.09;5004437;28;20037;-66
2022/12/22 11:51:42;;;;;;;9.65;4.07;;;;;;;19.24;46.03;100616.38;5012477;28;20038;-69
2022/12/22 11:54:38;;;;;;;7.38;3.80;;;;;;;19.23;45.92;100618.16;5009308;28;20062;-70
2022/12/22 11:57:40;;;;;;;6.32;4.00;;;;;;;19.23;45.77;100617.34;5018372;28;20029;-69
2022/12/22 12:00:12;;;;;;;6.07;3.40;;;;;;;19.17;45.67;100606.34;5024214;28;20144;-68
2022/12/22 12:03:04;;;;;;;6.65;3.97;;;;;;;19.23;45.70;100606.78;5007916;28;20034;-70
2022/12/22 12:05:39;;;;;;;10.65;4.05;;;;;;;19.19;45.90;100590.38;5011176;28;20436;-69
2022/12/22 12:08:13;;;;;;;7.85;4.07;;;;;;;19.19;45.98;100604.41;5004039;28;20056;-75
2022/12/22 12:10:53;;;;;;;;;;;;;;;19.26;45.80;100601.22;5009250;28;20026;-70
2022/12/22 12:13:32;;;;;;;7.80;4.05;;;;;;;19.23;45.88;100586.47;5014844;28;19917;-74
2022/12/22 12:16:17;;;;;;;6.00;3.35;;;;;;;19.20;46.05;100578.81;5023127;28;20071;-72
2022/12/22 12:18:57;;;;;;;9.05;3.63;;;;;;;19.18;46.06;100572.84;5019628;28;20036;-70
2022/12/22 12:21:27;;;;;;;5.35;3.40;;;;;;;19.19;45.91;100577.97;5009646;28;20473;-70
2022/12/22 12:24:10;;;;;;;8.10;3.53;;;;;;;19.18;45.81;100565.78;5003129;28;20076;-73
2022/12/22 12:26:45;;;;;;;6.18;3.30;;;;;;;19.14;46.02;100551.16;5010897;28;20504;-72
2022/12/22 12:29:45;;;;;;;7.30;2.90;;;;;;;19.20;45.98;100555.03;5019763;28;20037;-74
2022/12/22 12:32:17;;;;;;;5.22;2.97;;;;;;;19.13;45.91;100544.19;5003342;28;20050;-73
2022/12/22 12:34:48;;;;;;;6.68;3.10;;;;;;;19.19;45.80;100558.66;5023427;28;20081;-73
2022/12/22 12:37:28;;;;;;;6.38;3.10;;;;;;;19.19;45.85;100556.84;5018923;28;20126;-71
2022/12/22 12:40:15;;;;;;;5.82;3.45;;;;;;;19.22;45.42;100550.47;5002622;28;20042;-67
2022/12/22 12:42:44;;;;;;;6.15;3.17;;;;;;;19.19;45.62;100550.75;5002551;28;20497;-69
2022/12/22 12:45:33;;;;;;;5.97;3.53;;;;;;;19.20;45.96;100563.81;5016258;28;20036;-68
2022/12/22 12:48:21;;;;;;;7.65;3.28;;;;;;;19.20;45.43;100557.69;5009381;28;20032;-68
2022/12/22 12:50:52;;;;;;;6.03;3.10;;;;;;;19.18;45.27;100552.56;5012471;28;20044;-70
2022/12/22 12:53:20;;;;;;;5.13;2.78;;;;;;;19.17;45.75;100548.25;5003648;28;20397;-72
2022/12/22 12:55:48;;;;;;;7.32;3.55;;;;;;;19.17;45.60;100553.53;5012651;28;20048;-73
2022/12/22 12:58:34;;;;;;;8.98;3.42;;;;;;;19.18;45.84;100549.91;5014461;28;20041;-73
2022/12/22 13:01:00;;;;;;;7.20;3.00;;;;;;;19.18;45.80;100541.13;5031090;28;21079;-67
2022/12/22 13:03:28;;;;;;;5.43;2.95;;;;;;;19.23;45.67;100554.75;5012389;28;20037;-66
2022/12/22 13:05:56;;;;;;;5.82;2.90;;;;;;;19.23;45.44;100546.00;5013258;28;20045;-72
2022/12/22 13:08:24;;;;;;;7.07;2.85;;;;;;;19.24;45.30;100545.88;5012141;28;20034;-73
2022/12/22 13:10:52;;;;;;;6.22;3.60;;;;;;;19.20;45.55;100552.41;5010632;28;20548;-69
2022/12/22 13:13:20;;;;;;;5.78;3.50;;;;;;;19.18;45.84;100552.56;5012590;28;20033;-69
2022/12/22 13:15:47;;;;;;;6.95;3.40;;;;;;;19.12;46.06;100549.63;5014216;28;20034;-70
2022/12/22 13:18:22;;;;;;;8.30;3.60;;;;;;;19.17;45.92;100552.69;5011238;28;20040;-71
2022/12/22 13:21:04;;;;;;;6.63;4.15;;;;;;;19.16;45.96;100551.03;5011132;28;20056;-71
2022/12/22 13:23:39;;;;;;;6.78;3.20;;;;;;;19.15;45.88;100550.19;5010027;28;20076;-77
2022/12/22 13:26:20;;;;;;;5.05;3.10;;;;;;;19.17;45.88;100552.69;5012751;28;20042;-70
2022/12/22 13:28:53;;;;;;;7.03;3.35;;;;;;;19.15;45.54;100547.56;5010514;28;20030;-71
2022/12/22 13:31:30;;;;;;;7.93;3.60;;;;;;;19.16;45.78;100548.38;5018775;28;20030;-71
2022/12/22 13:34:33;;;;;;;4.72;2.78;;;;;;;19.21;45.69;100554.91;5016121;28;20459;-74
2022/12/22 13:37:09;;;;;;;5.28;2.70;;;;;;;19.18;45.78;100536.72;5002451;28;20034;-70
2022/12/22 13:39:35;;;;;;;5.82;2.95;;;;;;;19.19;45.60;100534.91;5007227;28;20510;-71
2022/12/22 13:42:00;;;;;;;7.13;3.40;;;;;;;19.25;45.89;100538.78;5010223;28;20474;-73
2022/12/22 13:44:32;;;;;;;5.43;2.53;;;;;;;19.17;45.61;100516.53;5016907;28;20030;-73
2022/12/22 13:47:09;;;;;;;5.07;2.40;;;;;;;19.21;45.50;100523.19;5019390;28;20449;-70
2022/12/22 13:49:35;;;;;;;4.18;2.42;;;;;;;19.23;45.36;100515.13;5009551;28;20029;-70
2022/12/22 13:52:01;;;;;;;7.13;3.08;;;;;;;19.24;45.35;100518.63;5006661;28;20034;-72
2022/12/22 13:54:34;;;;;;;6.18;2.60;;;;;;;19.21;45.43;100514.44;5010353;28;20038;-72
2022/12/22 13:57:02;;;;;;;6.85;2.75;;;;;;;19.25;45.15;100515.00;5007671;28;20061;-70
2022/12/22 13:59:39;;;;;;;5.38;2.50;;;;;;;19.24;45.35;100510.69;5006737;28;20034;-68
2022/12/22 14:02:08;;;;;;;5.00;2.30;;;;;;;19.24;45.06;100506.25;5015327;28;20132;-70
2022/12/22 14:04:35;;;;;;;4.32;2.80;;;;;;;19.24;45.11;100506.25;5021608;28;20033;-68
2022/12/22 14:07:16;;;;;;;4.95;2.67;;;;;;;19.20;44.90;100491.63;5002469;28;20120;-69
2022/12/22 14:09:49;;;;;;;4.63;2.72;;;;;;;19.16;44.85;100491.09;5005599;28;20350;-69
2022/12/22 14:12:19;;;;;;;5.00;2.57;;;;;;;19.18;45.03;100506.81;5010770;28;20033;-70
2022/12/22 14:14:46;;;;;;;5.07;2.45;;;;;;;19.14;45.09;100494.88;5016205;28;20090;-71
2022/12/22 14:17:26;;;;;;;6.63;2.50;;;;;;;19.11;45.33;100493.31;5001139;28;20033;-71
2022/12/22 14:20:01;;;;;;;5.55;2.38;;;;;;;19.13;45.57;100494.00;5001054;28;20042;-74
2022/12/22 14:22:37;;;;;;;6.32;2.35;;;;;;;19.13;45.42;100495.81;5007611;28;20038;-73
2022/12/22 14:25:17;;;;;;;6.93;2.63;;;;;;;19.12;45.90;100473.88;5012453;28;20029;-71
2022/12/22 14:27:47;;;;;;;4.95;2.38;;;;;;;19.14;45.41;100482.47;5012424;28;20026;-67
2022/12/22 14:30:22;;;;;;;5.65;2.30;;;;;;;19.16;45.28;100469.97;5000691;28;20025;-71
2022/12/22 14:32:49;;;;;;;4.10;1.95;;;;;;;19.13;45.81;100467.59;5004704;28;20072;-69
2022/12/22 14:35:21;;;;;;;4.32;2.20;;;;;;;19.18;45.68;100475.09;5020879;28;20073;-68
2022/12/22 14:37:48;;;;;;;4.20;2.00;;;;;;;19.14;45.74;100471.09;5010302;28;20038;-71
2022/12/22 14:40:34;;;;;;;4.75;2.22;;;;;;;19.16;45.76;100467.31;5014743;28;20034;-70
2022/12/22 14:43:02;;;;;;;6.68;2.40;;;;;;;19.15;45.80;100460.38;5004261;28;20033;-70
2022/12/22 14:45:28;;;;;;;4.90;2.08;;;;;;;19.14;45.90;100447.31;5012370;28;20033;-73
2022/12/22 14:47:54;;;;;;;5.15;2.00;;;;;;;19.15;45.79;100452.47;5015577;28;20091;-70
2022/12/22 14:50:23;;;;;;;4.45;2.00;;;;;;;19.13;45.89;100451.75;5014243;28;20041;-68
2022/12/22 14:52:51;;;;;;;5.78;2.10;;;;;;;19.16;45.88;100448.00;5015426;28;20065;-72
2022/12/22 14:55:41;;;;;;;5.18;2.13;;;;;;;19.19;45.86;100453.81;5005066;28;20033;-74
2022/12/22 14:58:09;;;;;;;5.18;1.80;;;;;;;19.19;45.83;100453.81;5008580;28;20041;-70
2022/12/22 15:00:38;;;;;;;9.32;2.60;;;;;;;19.20;45.98;100450.22;5015612;28;20037;-69
2022/12/22 15:03:23;;;;;;;4.30;1.80;;;;;;;19.24;45.79;100444.66;5010281;28;20049;-71
2022/12/22 15:05:49;;;;;;;6.82;2.08;;;;;;;19.20;45.87;100444.94;5008910;28;20874;-74
2022/12/22 15:08:36;;;;;;;4.75;2.10;;;;;;;19.23;46.04;100435.88;5010668;28;20033;-66
2022/12/22 15:11:02;;;;;;;5.72;2.05;;;;;;;19.20;45.91;100433.50;5017525;28;20421;-69
2022/12/22 15:13:28;;;;;;;5.20;1.80;;;;;;;19.20;45.67;100436.16;5005105;28;20034;-71
2022/12/22 15:15:54;;;;;;;5.63;2.03;;;;;;;19.17;45.91;100429.38;5027230;28;20025;-73
2022/12/22 15:18:24;;;;;;;6.70;2.28;;;;;;;19.20;45.96;100430.88;5011428;28;20099;-71